createdAt,value
2017-09-14T00:01:00.696Z,997.5
2017-09-14T00:02:22.842Z,997.54
2017-09-14T00:03:44.329Z,997.49
2017-09-14T00:05:06.562Z,997.57
2017-09-14T00:06:28.488Z,997.52
2017-09-14T00:07:50.605Z,997.53
2017-09-14T00:09:12.099Z,997.53
2017-09-14T00:10:34.208Z,997.59
2017-09-14T00:11:56.030Z,997.52
2017-09-14T00:13:18.490Z,997.52
2017-09-14T00:14:40.624Z,997.52
2017-09-14T00:16:02.242Z,997.52
2017-09-14T00:17:24.375Z,997.42
2017-09-14T00:18:46.201Z,997.47
2017-09-14T00:20:07.709Z,997.53
2017-09-14T00:21:30.202Z,997.51
2017-09-14T00:22:52.410Z,997.56
2017-09-14T00:24:13.903Z,997.52
2017-09-14T00:25:36.060Z,997.57
2017-09-14T00:26:57.910Z,997.58
2017-09-14T00:28:19.711Z,997.57
2017-09-14T00:29:41.540Z,997.55
2017-09-14T00:31:03.713Z,997.54
2017-09-14T00:32:26.084Z,997.52
2017-09-14T00:33:47.572Z,997.49
2017-09-14T00:35:09.384Z,997.53
2017-09-14T00:36:31.193Z,997.54
2017-09-14T00:37:54.003Z,997.51
2017-09-14T00:39:15.809Z,997.51
2017-09-14T00:40:37.664Z,997.46
2017-09-14T00:41:59.221Z,997.47
2017-09-14T00:43:21.708Z,997.44
2017-09-14T00:44:43.531Z,997.44
2017-09-14T00:46:04.703Z,997.43
2017-09-14T00:47:26.622Z,997.5
2017-09-14T00:48:49.422Z,997.39
2017-09-14T00:50:11.251Z,997.37
2017-09-14T00:51:33.058Z,997.36
2017-09-14T00:52:55.504Z,997.37
2017-09-14T00:54:18.304Z,997.37
2017-09-14T00:55:40.542Z,997.36
2017-09-14T00:57:02.351Z,997.38
2017-09-14T00:58:24.314Z,997.32
2017-09-14T00:59:46.052Z,997.37
2017-09-14T01:01:08.528Z,997.32
2017-09-14T01:02:30.332Z,997.4
2017-09-14T01:03:51.818Z,997.39
2017-09-14T01:05:13.368Z,997.39
2017-09-14T01:06:35.824Z,997.46
2017-09-14T01:07:57.652Z,997.41
2017-09-14T01:09:19.444Z,997.46
2017-09-14T01:10:41.994Z,997.42
2017-09-14T01:12:03.918Z,997.44
2017-09-14T01:13:26.053Z,997.44
2017-09-14T01:14:48.292Z,997.46
2017-09-14T01:16:10.697Z,997.42
2017-09-14T01:17:32.610Z,997.43
2017-09-14T01:18:55.063Z,997.48
2017-09-14T01:20:16.548Z,997.48
2017-09-14T01:21:39.055Z,997.46
2017-09-14T01:23:01.535Z,997.44
2017-09-14T01:24:23.684Z,997.46
2017-09-14T01:25:45.149Z,997.48
2017-09-14T01:27:06.902Z,997.45
2017-09-14T01:28:29.015Z,997.43
2017-09-14T01:29:51.152Z,997.45
2017-09-14T01:31:13.377Z,997.44
2017-09-14T01:32:36.172Z,997.42
2017-09-14T01:33:58.293Z,997.43
2017-09-14T01:35:20.113Z,997.41
2017-09-14T01:36:42.270Z,997.45
2017-09-14T01:38:04.475Z,997.44
2017-09-14T01:39:26.062Z,997.41
2017-09-14T01:40:47.235Z,997.43
2017-09-14T01:42:09.055Z,997.4
2017-09-14T01:43:31.173Z,997.45
2017-09-14T01:44:52.672Z,997.41
2017-09-14T01:46:15.122Z,997.4
2017-09-14T01:47:36.925Z,997.43
2017-09-14T01:48:59.102Z,997.43
2017-09-14T01:50:20.592Z,997.43
2017-09-14T01:51:42.076Z,997.43
2017-09-14T01:53:03.560Z,997.43
2017-09-14T01:54:26.042Z,997.43
2017-09-14T01:55:48.501Z,997.47
2017-09-14T01:57:11.072Z,997.46
2017-09-14T01:58:32.877Z,997.4
2017-09-14T01:59:55.092Z,997.43
2017-09-14T02:01:16.603Z,997.44
2017-09-14T02:02:38.412Z,997.49
2017-09-14T02:03:59.899Z,997.46
2017-09-14T02:05:22.474Z,997.4
2017-09-14T02:06:44.603Z,997.4
2017-09-14T02:08:06.761Z,997.4
2017-09-14T02:09:28.580Z,997.4
2017-09-14T02:10:50.370Z,997.37
2017-09-14T02:12:12.504Z,997.36
2017-09-14T02:13:34.301Z,997.3
2017-09-14T02:14:56.442Z,997.3
2017-09-14T02:16:18.551Z,997.31
2017-09-14T02:17:41.054Z,997.26
2017-09-14T02:19:02.857Z,997.29
2017-09-14T02:20:24.997Z,997.27
2017-09-14T02:21:46.804Z,997.23
2017-09-14T02:23:08.939Z,997.26
2017-09-14T02:24:31.072Z,997.25
2017-09-14T02:25:52.561Z,997.19
2017-09-14T02:27:14.763Z,997.22
2017-09-14T02:28:36.570Z,997.2
2017-09-14T02:29:58.482Z,997.25
2017-09-14T02:31:20.313Z,997.28
2017-09-14T02:32:42.863Z,997.26
2017-09-14T02:34:04.692Z,997.31
2017-09-14T02:35:25.961Z,997.29
2017-09-14T02:36:47.953Z,997.26
2017-09-14T02:38:10.421Z,997.28
2017-09-14T02:39:32.566Z,997.26
2017-09-14T02:40:54.411Z,997.26
2017-09-14T02:42:16.844Z,997.27
2017-09-14T02:43:38.803Z,997.33
2017-09-14T02:45:00.602Z,997.31
2017-09-14T02:46:22.115Z,997.24
2017-09-14T02:47:43.934Z,997.27
2017-09-14T02:49:05.374Z,997.29
2017-09-14T02:50:27.243Z,997.3
2017-09-14T02:51:49.043Z,997.32
2017-09-14T02:53:11.174Z,997.32
2017-09-14T02:54:33.603Z,997.32
2017-09-14T02:55:55.103Z,997.37
2017-09-14T02:57:16.594Z,997.35
2017-09-14T02:58:38.095Z,997.37
2017-09-14T02:59:59.562Z,997.37
2017-09-14T03:01:21.052Z,997.36
2017-09-14T03:02:42.216Z,997.36
2017-09-14T03:04:04.353Z,997.33
2017-09-14T03:05:26.603Z,997.37
2017-09-14T03:06:48.752Z,997.4
2017-09-14T03:08:10.969Z,997.5
2017-09-14T03:09:32.123Z,997.49
2017-09-14T03:10:53.860Z,997.45
2017-09-14T03:12:15.343Z,997.47
2017-09-14T03:13:37.144Z,997.49
2017-09-14T03:14:59.580Z,997.52
2017-09-14T03:16:22.369Z,997.51
2017-09-14T03:17:44.602Z,997.52
2017-09-14T03:19:06.790Z,997.55
2017-09-14T03:20:28.390Z,997.56
2017-09-14T03:21:50.834Z,997.57
2017-09-14T03:23:13.281Z,997.54
2017-09-14T03:24:35.081Z,997.53
2017-09-14T03:25:56.588Z,997.53
2017-09-14T03:27:19.382Z,997.59
2017-09-14T03:28:40.869Z,997.54
2017-09-14T03:30:02.683Z,997.59
2017-09-14T03:31:24.485Z,997.52
2017-09-14T03:32:46.621Z,997.54
2017-09-14T03:34:08.762Z,997.55
2017-09-14T03:35:30.245Z,997.55
2017-09-14T03:36:52.097Z,997.53
2017-09-14T03:38:13.989Z,997.48
2017-09-14T03:39:36.131Z,997.53
2017-09-14T03:40:57.961Z,997.5
2017-09-14T03:42:20.103Z,997.5
2017-09-14T03:43:42.474Z,997.55
2017-09-14T03:45:04.280Z,997.5
2017-09-14T03:46:26.093Z,997.53
2017-09-14T03:47:48.242Z,997.46
2017-09-14T03:49:10.353Z,997.47
2017-09-14T03:50:32.602Z,997.49
2017-09-14T03:51:53.777Z,997.46
2017-09-14T03:53:14.983Z,997.45
2017-09-14T03:54:36.823Z,997.5
2017-09-14T03:55:59.072Z,997.46
2017-09-14T03:57:20.663Z,997.47
2017-09-14T03:58:42.800Z,997.48
2017-09-14T04:00:04.630Z,997.45
2017-09-14T04:01:26.570Z,997.46
2017-09-14T04:02:48.737Z,997.45
2017-09-14T04:04:10.743Z,997.46
2017-09-14T04:05:32.275Z,997.44
2017-09-14T04:06:54.472Z,997.48
2017-09-14T04:08:16.619Z,997.46
2017-09-14T04:09:38.761Z,997.45
2017-09-14T04:11:01.351Z,997.46
2017-09-14T04:12:23.488Z,997.48
2017-09-14T04:13:45.303Z,997.46
2017-09-14T04:15:06.795Z,997.48
2017-09-14T04:16:29.163Z,997.48
2017-09-14T04:17:50.648Z,997.46
2017-09-14T04:19:12.793Z,997.45
2017-09-14T04:20:34.917Z,997.43
2017-09-14T04:21:57.429Z,997.49
2017-09-14T04:23:18.602Z,997.48
2017-09-14T04:24:40.739Z,997.54
2017-09-14T04:26:02.243Z,997.49
2017-09-14T04:27:25.041Z,997.51
2017-09-14T04:28:46.849Z,997.5
2017-09-14T04:30:08.661Z,997.49
2017-09-14T04:31:30.901Z,997.5
2017-09-14T04:32:53.283Z,997.46
2017-09-14T04:34:14.758Z,997.47
2017-09-14T04:35:36.932Z,997.54
2017-09-14T04:36:59.078Z,997.49
2017-09-14T04:38:21.351Z,997.48
2017-09-14T04:39:43.003Z,997.46
2017-09-14T04:41:04.808Z,997.48
2017-09-14T04:42:26.928Z,997.45
2017-09-14T04:43:48.778Z,997.52
2017-09-14T04:45:10.275Z,997.44
2017-09-14T04:46:32.403Z,997.51
2017-09-14T04:47:54.553Z,997.47
2017-09-14T04:49:17.421Z,997.47
2017-09-14T04:50:39.563Z,997.48
2017-09-14T04:52:01.693Z,997.44
2017-09-14T04:53:23.842Z,997.51
2017-09-14T04:54:45.600Z,997.49
2017-09-14T04:56:07.762Z,997.43
2017-09-14T04:57:29.911Z,997.43
2017-09-14T04:58:51.799Z,997.45
2017-09-14T05:00:13.735Z,997.47
2017-09-14T05:01:35.879Z,997.43
2017-09-14T05:02:57.382Z,997.5
2017-09-14T05:04:19.926Z,997.52
2017-09-14T05:05:42.013Z,997.49
2017-09-14T05:07:04.177Z,997.46
2017-09-14T05:08:26.685Z,997.53
2017-09-14T05:09:49.295Z,997.49
2017-09-14T05:11:11.759Z,997.48
2017-09-14T05:12:34.222Z,997.48
2017-09-14T05:13:56.103Z,997.45
2017-09-14T05:15:18.254Z,997.45
2017-09-14T05:16:40.332Z,997.51
2017-09-14T05:18:02.149Z,997.47
2017-09-14T05:19:23.992Z,997.53
2017-09-14T05:20:46.523Z,997.56
2017-09-14T05:22:09.019Z,997.51
2017-09-14T05:23:30.842Z,997.51
2017-09-14T05:24:52.663Z,997.57
2017-09-14T05:26:14.804Z,997.6
2017-09-14T05:27:36.965Z,997.58
2017-09-14T05:28:59.422Z,997.55
2017-09-14T05:30:21.344Z,997.54
2017-09-14T05:31:43.257Z,997.53
2017-09-14T05:33:05.333Z,997.5
2017-09-14T05:34:27.171Z,997.49
2017-09-14T05:35:49.632Z,997.48
2017-09-14T05:37:10.473Z,997.48
2017-09-14T05:38:32.332Z,997.54
2017-09-14T05:39:54.161Z,997.52
2017-09-14T05:41:15.969Z,997.51
2017-09-14T05:42:38.226Z,997.53
2017-09-14T05:44:00.808Z,997.51
2017-09-14T05:45:23.282Z,997.52
2017-09-14T05:46:45.123Z,997.45
2017-09-14T05:48:06.309Z,997.48
2017-09-14T05:49:28.056Z,997.42
2017-09-14T05:50:49.882Z,997.42
2017-09-14T05:52:11.732Z,997.39
2017-09-14T05:53:33.223Z,997.38
2017-09-14T05:54:55.332Z,997.42
2017-09-14T05:56:16.852Z,997.36
2017-09-14T05:57:38.342Z,997.4
2017-09-14T05:59:00.781Z,997.38
2017-09-14T06:00:22.952Z,997.36
2017-09-14T06:01:45.411Z,997.4
2017-09-14T06:03:07.210Z,997.38
2017-09-14T06:04:28.919Z,997.44
2017-09-14T06:05:51.010Z,997.39
2017-09-14T06:07:13.556Z,997.43
2017-09-14T06:08:36.035Z,997.41
2017-09-14T06:09:58.323Z,997.39
2017-09-14T06:11:20.763Z,997.5
2017-09-14T06:12:43.345Z,997.47
2017-09-14T06:14:05.492Z,997.51
2017-09-14T06:15:27.644Z,997.57
2017-09-14T06:16:49.734Z,997.52
2017-09-14T06:18:11.884Z,997.53
2017-09-14T06:19:33.712Z,997.57
2017-09-14T06:20:56.473Z,997.6
2017-09-14T06:22:18.922Z,997.63
2017-09-14T06:23:40.747Z,997.67
2017-09-14T06:25:03.202Z,997.65
2017-09-14T06:26:25.014Z,997.65
2017-09-14T06:27:47.721Z,997.64
2017-09-14T06:29:08.890Z,997.66
2017-09-14T06:30:31.045Z,997.7
2017-09-14T06:31:53.241Z,997.63
2017-09-14T06:33:15.393Z,997.69
2017-09-14T06:34:37.572Z,997.65
2017-09-14T06:35:59.693Z,997.65
2017-09-14T06:37:21.524Z,997.67
2017-09-14T06:38:43.988Z,997.62
2017-09-14T06:40:05.481Z,997.7
2017-09-14T06:41:27.715Z,997.74
2017-09-14T06:42:49.542Z,997.67
2017-09-14T06:44:12.052Z,997.76
2017-09-14T06:45:34.217Z,997.75
2017-09-14T06:46:56.703Z,997.77
2017-09-14T06:48:18.852Z,997.77
2017-09-14T06:49:41.102Z,997.81
2017-09-14T06:51:02.926Z,997.82
2017-09-14T06:52:24.843Z,997.82
2017-09-14T06:53:47.093Z,997.84
2017-09-14T06:55:09.853Z,997.85
2017-09-14T06:56:33.018Z,997.78
2017-09-14T06:57:55.715Z,997.86
2017-09-14T06:59:18.217Z,997.89
2017-09-14T07:00:40.653Z,997.82
2017-09-14T07:02:03.172Z,997.83
2017-09-14T07:03:25.640Z,997.82
2017-09-14T07:04:47.468Z,997.91
2017-09-14T07:06:11.166Z,997.71
2017-09-14T07:07:33.659Z,997.8
2017-09-14T07:08:55.855Z,997.78
2017-09-14T07:10:17.769Z,997.83
2017-09-14T07:11:40.222Z,997.86
2017-09-14T07:13:02.493Z,997.91
2017-09-14T07:14:24.990Z,998.03
2017-09-14T07:15:46.848Z,997.93
2017-09-14T07:17:09.990Z,997.95
2017-09-14T07:18:32.140Z,997.91
2017-09-14T07:19:54.283Z,997.9
2017-09-14T07:21:16.551Z,997.95
2017-09-14T07:22:39.502Z,997.91
2017-09-14T07:24:01.595Z,997.99
2017-09-14T07:25:23.785Z,998.05
2017-09-14T07:26:49.200Z,998
2017-09-14T07:28:11.832Z,997.99
2017-09-14T07:29:33.191Z,998.03
2017-09-14T07:30:55.313Z,998.1
2017-09-14T07:32:17.459Z,998.12
2017-09-14T07:33:39.532Z,998.02
2017-09-14T07:35:02.005Z,998.04
2017-09-14T07:36:23.823Z,998.07
2017-09-14T07:37:46.308Z,997.93
2017-09-14T07:39:09.229Z,997.97
2017-09-14T07:40:31.055Z,998.02
2017-09-14T07:41:52.572Z,998.05
2017-09-14T07:43:15.083Z,998
2017-09-14T07:44:37.481Z,997.96
2017-09-14T07:45:58.992Z,997.97
2017-09-14T07:47:21.156Z,997.96
2017-09-14T07:48:43.674Z,997.97
2017-09-14T07:50:06.220Z,997.92
2017-09-14T07:51:28.373Z,997.92
2017-09-14T07:52:50.203Z,997.96
2017-09-14T07:54:11.686Z,997.96
2017-09-14T07:55:34.131Z,997.96
2017-09-14T07:56:56.695Z,997.95
2017-09-14T07:58:18.835Z,997.93
2017-09-14T07:59:40.975Z,997.85
2017-09-14T08:01:03.454Z,997.87
2017-09-14T08:02:25.600Z,997.89
2017-09-14T08:03:47.433Z,997.93
2017-09-14T08:05:09.714Z,997.92
2017-09-14T08:06:31.958Z,997.83
2017-09-14T08:07:53.482Z,997.85
2017-09-14T08:09:14.322Z,997.89
2017-09-14T08:10:35.817Z,997.87
2017-09-14T08:11:58.743Z,997.88
2017-09-14T08:13:21.195Z,997.92
2017-09-14T08:14:43.003Z,997.9
2017-09-14T08:16:04.842Z,997.94
2017-09-14T08:17:27.302Z,997.95
2017-09-14T08:18:49.112Z,997.97
2017-09-14T08:20:11.233Z,997.94
2017-09-14T08:21:33.746Z,998.03
2017-09-14T08:22:56.008Z,997.98
2017-09-14T08:24:18.482Z,998.01
2017-09-14T08:25:40.352Z,997.98
2017-09-14T08:27:02.794Z,998.07
2017-09-14T08:28:25.301Z,998.04
2017-09-14T08:29:47.121Z,998.05
2017-09-14T08:31:08.952Z,998.05
2017-09-14T08:32:31.411Z,998.12
2017-09-14T08:33:53.335Z,998.09
2017-09-14T08:35:15.821Z,998.09
2017-09-14T08:36:37.743Z,998.06
2017-09-14T08:37:59.993Z,998.05
2017-09-14T08:39:22.124Z,998.02
2017-09-14T08:40:43.952Z,998.11
2017-09-14T08:42:06.398Z,998.13
2017-09-14T08:43:27.902Z,998.17
2017-09-14T08:44:49.682Z,998.16
2017-09-14T08:46:11.505Z,998.12
2017-09-14T08:47:33.013Z,998.13
2017-09-14T08:48:54.503Z,998.11
2017-09-14T08:50:16.913Z,998.17
2017-09-14T08:51:39.370Z,998.2
2017-09-14T08:53:00.851Z,998.14
2017-09-14T08:54:23.003Z,998.15
2017-09-14T08:55:45.402Z,998.22
2017-09-14T08:57:07.235Z,998.21
2017-09-14T08:58:29.063Z,998.28
2017-09-14T08:59:50.886Z,998.22
2017-09-14T09:01:13.675Z,998.27
2017-09-14T09:02:35.163Z,998.37
2017-09-14T09:03:57.302Z,998.3
2017-09-14T09:05:19.103Z,998.32
2017-09-14T09:06:41.835Z,998.31
2017-09-14T09:08:03.960Z,998.38
2017-09-14T09:09:26.087Z,998.32
2017-09-14T09:10:48.603Z,998.29
2017-09-14T09:12:10.123Z,998.34
2017-09-14T09:13:32.093Z,998.24
2017-09-14T09:14:54.242Z,998.31
2017-09-14T09:16:16.354Z,998.21
2017-09-14T09:17:38.939Z,998.24
2017-09-14T09:19:00.125Z,998.3
2017-09-14T09:20:21.954Z,998.3
2017-09-14T09:21:44.126Z,998.26
2017-09-14T09:23:06.523Z,998.26
2017-09-14T09:24:28.990Z,998.27
2017-09-14T09:25:50.815Z,998.26
2017-09-14T09:27:13.043Z,998.3
2017-09-14T09:28:34.942Z,998.28
2017-09-14T09:29:56.518Z,998.2
2017-09-14T09:31:18.688Z,998.15
2017-09-14T09:32:40.974Z,998.24
2017-09-14T09:34:03.355Z,998.2
2017-09-14T09:35:25.481Z,998.15
2017-09-14T09:36:47.662Z,998.21
2017-09-14T09:38:09.226Z,998.22
2017-09-14T09:39:31.645Z,998.18
2017-09-14T09:40:53.451Z,998.25
2017-09-14T09:42:15.623Z,998.29
2017-09-14T09:43:37.831Z,998.38
2017-09-14T09:45:00.475Z,998.34
2017-09-14T09:46:22.975Z,998.43
2017-09-14T09:47:45.131Z,998.39
2017-09-14T09:49:07.303Z,998.27
2017-09-14T09:50:29.096Z,998.29
2017-09-14T09:51:51.563Z,998.28
2017-09-14T09:53:13.773Z,998.35
2017-09-14T09:54:35.293Z,998.3
2017-09-14T09:55:57.847Z,998.41
2017-09-14T09:57:20.002Z,998.37
2017-09-14T09:58:41.831Z,998.37
2017-09-14T10:00:04.304Z,998.35
2017-09-14T10:01:27.031Z,998.36
2017-09-14T10:02:48.215Z,998.35
2017-09-14T10:04:10.675Z,998.5
2017-09-14T10:05:32.574Z,998.39
2017-09-14T10:06:55.024Z,998.43
2017-09-14T10:08:17.182Z,998.5
2017-09-14T10:09:39.316Z,998.41
2017-09-14T10:11:01.504Z,998.45
2017-09-14T10:12:24.373Z,998.44
2017-09-14T10:13:46.820Z,998.44
2017-09-14T10:15:08.955Z,998.4
2017-09-14T10:16:30.783Z,998.43
2017-09-14T10:17:53.556Z,998.51
2017-09-14T10:19:14.744Z,998.52
2017-09-14T10:20:36.892Z,998.53
2017-09-14T10:21:59.118Z,998.56
2017-09-14T10:23:21.303Z,998.49
2017-09-14T10:24:43.150Z,998.52
2017-09-14T10:26:04.974Z,998.51
2017-09-14T10:27:27.113Z,998.43
2017-09-14T10:28:49.583Z,998.64
2017-09-14T10:30:11.094Z,998.6
2017-09-14T10:31:33.257Z,998.53
2017-09-14T10:32:55.403Z,998.45
2017-09-14T10:34:17.962Z,998.42
2017-09-14T10:35:40.138Z,998.49
2017-09-14T10:37:01.650Z,998.51
2017-09-14T10:38:23.265Z,998.48
2017-09-14T10:39:45.482Z,998.48
2017-09-14T10:41:07.326Z,998.36
2017-09-14T10:42:29.158Z,998.43
2017-09-14T10:43:51.773Z,998.47
2017-09-14T10:45:13.628Z,998.47
2017-09-14T10:46:35.792Z,998.42
2017-09-14T10:47:57.299Z,998.45
2017-09-14T10:49:19.136Z,998.49
2017-09-14T10:50:41.212Z,998.45
2017-09-14T10:52:03.044Z,998.54
2017-09-14T10:53:24.851Z,998.56
2017-09-14T10:54:47.314Z,998.61
2017-09-14T10:56:09.752Z,998.59
2017-09-14T10:57:32.223Z,998.53
2017-09-14T10:58:54.049Z,998.61
2017-09-14T11:00:16.515Z,998.56
2017-09-14T11:01:39.241Z,998.57
2017-09-14T11:03:01.174Z,998.56
2017-09-14T11:04:22.363Z,998.63
2017-09-14T11:05:44.891Z,998.62
2017-09-14T11:07:06.402Z,998.59
2017-09-14T11:08:27.924Z,998.67
2017-09-14T11:09:50.392Z,998.67
2017-09-14T11:11:12.631Z,998.71
2017-09-14T11:12:34.819Z,998.71
2017-09-14T11:13:56.653Z,998.65
2017-09-14T11:15:18.808Z,998.67
2017-09-14T11:16:40.813Z,998.76
2017-09-14T11:18:03.229Z,998.76
2017-09-14T11:19:25.670Z,998.79
2017-09-14T11:20:47.544Z,998.85
2017-09-14T11:22:10.153Z,998.84
2017-09-14T11:23:32.931Z,998.85
2017-09-14T11:24:54.470Z,998.77
2017-09-14T11:26:16.600Z,998.8
2017-09-14T11:27:38.810Z,998.94
2017-09-14T11:29:01.061Z,998.87
2017-09-14T11:30:23.311Z,998.91
2017-09-14T11:31:45.142Z,998.92
2017-09-14T11:33:06.956Z,998.93
2017-09-14T11:34:29.096Z,998.88
2017-09-14T11:35:51.252Z,998.92
2017-09-14T11:37:13.412Z,998.88
2017-09-14T11:38:34.954Z,998.82
2017-09-14T11:39:57.372Z,998.88
2017-09-14T11:41:19.513Z,998.9
2017-09-14T11:42:42.002Z,998.88
2017-09-14T11:44:03.511Z,998.83
2017-09-14T11:45:25.642Z,998.79
2017-09-14T11:46:47.499Z,998.86
2017-09-14T11:48:09.018Z,998.99
2017-09-14T11:49:31.508Z,998.9
2017-09-14T11:50:53.273Z,998.84
2017-09-14T11:52:15.416Z,998.86
2017-09-14T11:53:37.240Z,998.98
2017-09-14T11:54:59.063Z,998.9
2017-09-14T11:56:21.627Z,998.8
2017-09-14T11:57:43.882Z,998.89
2017-09-14T11:59:06.052Z,998.99
2017-09-14T12:00:27.912Z,998.97
2017-09-14T12:01:50.323Z,998.88
2017-09-14T12:03:12.185Z,998.96
2017-09-14T12:04:34.323Z,998.96
2017-09-14T12:05:56.225Z,998.99
2017-09-14T12:07:18.343Z,999.01
2017-09-14T12:08:40.622Z,998.89
2017-09-14T12:10:02.765Z,999
2017-09-14T12:11:24.257Z,998.9
2017-09-14T12:12:46.592Z,998.81
2017-09-14T12:14:08.103Z,998.87
2017-09-14T12:15:29.603Z,999
2017-09-14T12:16:51.754Z,998.92
2017-09-14T12:18:13.993Z,998.98
2017-09-14T12:19:36.253Z,998.96
2017-09-14T12:20:58.765Z,998.9
2017-09-14T12:22:20.594Z,998.89
2017-09-14T12:23:43.318Z,999.01
2017-09-14T12:25:05.796Z,998.99
2017-09-14T12:26:28.263Z,998.89
2017-09-14T12:27:50.440Z,998.88
2017-09-14T12:29:12.304Z,998.89
2017-09-14T12:30:34.138Z,998.97
2017-09-14T12:31:56.329Z,998.94
2017-09-14T12:33:18.531Z,998.96
2017-09-14T12:34:41.156Z,999.06
2017-09-14T12:36:02.982Z,999.18
2017-09-14T12:37:24.494Z,999.18
2017-09-14T12:38:46.975Z,999.17
2017-09-14T12:40:09.431Z,999.23
2017-09-14T12:41:31.922Z,999.22
2017-09-14T12:42:54.408Z,999.21
2017-09-14T12:44:16.543Z,999.06
2017-09-14T12:45:38.625Z,999.01
2017-09-14T12:47:00.767Z,999.07
2017-09-14T12:48:23.243Z,999.07
2017-09-14T12:49:45.186Z,999.02
2017-09-14T12:51:07.612Z,999.1
2017-09-14T12:52:29.785Z,999.1
2017-09-14T12:53:52.266Z,999.05
2017-09-14T12:55:14.735Z,999.11
2017-09-14T12:56:37.183Z,999.1
2017-09-14T12:57:59.716Z,999.15
2017-09-14T12:59:21.885Z,999.16
2017-09-14T13:00:44.363Z,999.29
2017-09-14T13:02:06.438Z,999.2
2017-09-14T13:03:28.619Z,999.21
2017-09-14T13:04:50.422Z,999.18
2017-09-14T13:06:12.573Z,999.21
2017-09-14T13:07:35.292Z,999.32
2017-09-14T13:08:57.818Z,999.35
2017-09-14T13:10:20.300Z,999.35
2017-09-14T13:11:42.133Z,999.41
2017-09-14T13:13:04.314Z,999.46
2017-09-14T13:14:26.462Z,999.44
2017-09-14T13:15:48.603Z,999.42
2017-09-14T13:17:10.832Z,999.43
2017-09-14T13:18:32.703Z,999.46
2017-09-14T13:19:55.163Z,999.48
2017-09-14T13:21:17.652Z,999.57
2017-09-14T13:22:39.466Z,999.62
2017-09-14T13:24:01.973Z,999.5
2017-09-14T13:25:24.145Z,999.55
2017-09-14T13:26:46.850Z,999.58
2017-09-14T13:28:09.025Z,999.63
2017-09-14T13:29:31.114Z,999.62
2017-09-14T13:30:53.268Z,999.7
2017-09-14T13:32:15.434Z,999.79
2017-09-14T13:33:37.911Z,999.88
2017-09-14T13:35:00.322Z,999.91
2017-09-14T13:36:22.483Z,999.96
2017-09-14T13:37:44.429Z,999.99
2017-09-14T13:39:05.953Z,999.96
2017-09-14T13:40:28.192Z,1000.01
2017-09-14T13:41:50.355Z,999.98
2017-09-14T13:43:12.853Z,1000.05
2017-09-14T13:44:35.301Z,1000.03
2017-09-14T13:45:57.428Z,1000.04
2017-09-14T13:47:19.585Z,999.98
2017-09-14T13:48:41.740Z,999.94
2017-09-14T13:50:03.911Z,999.88
2017-09-14T13:51:26.309Z,999.89
2017-09-14T13:52:48.516Z,999.82
2017-09-14T13:54:10.666Z,999.81
2017-09-14T13:55:32.501Z,999.81
2017-09-14T13:56:55.270Z,999.81
2017-09-14T13:58:17.423Z,999.86
2017-09-14T13:59:39.270Z,999.91
2017-09-14T14:01:01.135Z,999.88
2017-09-14T14:02:23.573Z,999.89
2017-09-14T14:03:45.791Z,999.8
2017-09-14T14:05:07.732Z,999.82
2017-09-14T14:06:29.887Z,999.86
2017-09-14T14:07:52.397Z,999.88
2017-09-14T14:09:14.550Z,999.9
2017-09-14T14:10:36.832Z,999.92
2017-09-14T14:11:58.963Z,999.87
2017-09-14T14:13:21.891Z,999.87
2017-09-14T14:14:43.722Z,999.93
2017-09-14T14:16:05.870Z,999.97
2017-09-14T14:17:28.024Z,1000
2017-09-14T14:18:50.453Z,999.98
2017-09-14T14:20:12.610Z,1000.08
2017-09-14T14:21:34.119Z,1000.02
2017-09-14T14:22:56.271Z,1000.02
2017-09-14T14:24:19.161Z,1000.04
2017-09-14T14:25:41.651Z,1000.03
2017-09-14T14:27:04.130Z,1000.01
2017-09-14T14:28:26.463Z,1000
2017-09-14T14:29:48.922Z,1000.05
2017-09-14T14:31:11.580Z,1000.02
2017-09-14T14:32:33.130Z,1000.07
2017-09-14T14:33:55.672Z,1000.05
2017-09-14T14:35:17.736Z,1000.13
2017-09-14T14:36:39.338Z,1000.05
2017-09-14T14:38:00.839Z,1000.12
2017-09-14T14:39:22.991Z,1000.11
2017-09-14T14:40:45.496Z,1000.1
2017-09-14T14:42:07.634Z,1000.14
2017-09-14T14:43:29.812Z,1000.19
2017-09-14T14:44:52.279Z,1000.12
2017-09-14T14:46:15.116Z,1000.14
2017-09-14T14:47:36.956Z,1000.13
2017-09-14T14:48:59.499Z,1000.09
2017-09-14T14:50:21.072Z,1000.08
2017-09-14T14:51:43.586Z,1000.08
2017-09-14T14:53:05.495Z,1000.1
2017-09-14T14:54:27.644Z,1000.07
2017-09-14T14:55:50.172Z,1000.05
2017-09-14T14:57:12.268Z,1000.05
2017-09-14T14:58:34.758Z,1000.11
2017-09-14T14:59:56.913Z,1000.11
2017-09-14T15:01:19.374Z,1000.05
2017-09-14T15:02:41.784Z,1000.09
2017-09-14T15:04:04.273Z,1000.04
2017-09-14T15:05:26.774Z,999.99
2017-09-14T15:06:49.023Z,999.93
2017-09-14T15:08:11.798Z,999.96
2017-09-14T15:09:34.406Z,999.89
2017-09-14T15:10:56.942Z,999.96
2017-09-14T15:12:19.448Z,999.95
2017-09-14T15:13:40.904Z,999.86
2017-09-14T15:15:03.133Z,999.97
2017-09-14T15:16:25.422Z,999.85
2017-09-14T15:17:47.582Z,999.89
2017-09-14T15:19:10.472Z,999.92
2017-09-14T15:20:32.637Z,999.93
2017-09-14T15:21:54.466Z,999.92
2017-09-14T15:23:16.930Z,999.94
2017-09-14T15:24:39.364Z,999.89
2017-09-14T15:26:01.604Z,999.91
2017-09-14T15:27:24.090Z,999.9
2017-09-14T15:28:46.579Z,999.9
2017-09-14T15:30:09.352Z,999.93
2017-09-14T15:31:31.532Z,999.86
2017-09-14T15:32:54.106Z,999.94
2017-09-14T15:34:16.252Z,999.89
2017-09-14T15:35:38.352Z,999.91
2017-09-14T15:36:59.854Z,999.95
2017-09-14T15:38:22.061Z,999.97
2017-09-14T15:39:44.230Z,1000.03
2017-09-14T15:41:07.019Z,1000.05
2017-09-14T15:42:29.543Z,1000.13
2017-09-14T15:43:52.044Z,1000.12
2017-09-14T15:45:14.193Z,1000.08
2017-09-14T15:46:37.024Z,1000.08
2017-09-14T15:47:59.288Z,1000.12
2017-09-14T15:49:21.202Z,999.98
2017-09-14T15:50:43.714Z,1000
2017-09-14T15:52:06.106Z,1000.05
2017-09-14T15:53:28.660Z,1000.04
2017-09-14T15:54:49.826Z,1000.06
2017-09-14T15:56:11.651Z,1000.07
2017-09-14T15:57:34.445Z,1000
2017-09-14T15:58:56.602Z,1000.1
2017-09-14T16:00:19.157Z,1000.05
2017-09-14T16:01:41.640Z,1000.02
2017-09-14T16:03:04.651Z,1000.05
2017-09-14T16:04:26.534Z,1000.03
2017-09-14T16:05:49.143Z,1000.09
2017-09-14T16:07:10.984Z,999.99
2017-09-14T16:08:33.732Z,999.97
2017-09-14T16:09:56.201Z,1000.03
2017-09-14T16:11:18.667Z,1000
2017-09-14T16:12:41.179Z,1000.02
2017-09-14T16:14:03.622Z,1000.05
2017-09-14T16:15:25.781Z,1000.06
2017-09-14T16:16:47.752Z,1000.07
2017-09-14T16:18:09.924Z,1000.04
2017-09-14T16:19:32.348Z,1000.08
2017-09-14T16:20:54.217Z,1000.04
2017-09-14T16:22:16.683Z,1000.07
2017-09-14T16:23:38.835Z,1000.07
2017-09-14T16:25:01.545Z,1000.09
2017-09-14T16:26:23.683Z,1000.13
2017-09-14T16:27:45.834Z,1000.12
2017-09-14T16:29:08.017Z,1000.09
2017-09-14T16:30:30.434Z,1000.12
2017-09-14T16:31:52.648Z,1000.11
2017-09-14T16:33:15.173Z,1000.14
2017-09-14T16:34:37.436Z,1000.16
2017-09-14T16:35:59.615Z,1000.15
2017-09-14T16:37:22.153Z,1000.12
2017-09-14T16:38:44.712Z,1000.16
2017-09-14T16:40:06.273Z,1000.13
2017-09-14T16:41:28.813Z,1000.16
2017-09-14T16:42:51.353Z,1000.13
2017-09-14T16:44:13.513Z,1000.15
2017-09-14T16:45:35.986Z,1000.17
2017-09-14T16:46:58.384Z,1000.16
2017-09-14T16:48:20.542Z,1000.13
2017-09-14T16:49:42.718Z,1000.17
2017-09-14T16:51:05.215Z,1000.16
2017-09-14T16:52:27.977Z,1000.17
2017-09-14T16:53:49.911Z,1000.18
2017-09-14T16:55:12.502Z,1000.17
2017-09-14T16:56:34.954Z,1000.19
2017-09-14T16:57:57.746Z,1000.15
2017-09-14T16:59:20.231Z,1000.21
2017-09-14T17:00:42.704Z,1000.15
2017-09-14T17:02:05.223Z,1000.23
2017-09-14T17:03:27.663Z,1000.27
2017-09-14T17:04:49.826Z,1000.25